sensor_id;sensor_type;location;lat;lon;timestamp;temperature;humidity
68867;SHT30;56451;44.804;20.476;2024-01-10T00:00:43;1.86;57.10
68867;SHT30;56451;44.804;20.476;2024-01-10T00:03:09;1.86;57.13
68867;SHT30;56451;44.804;20.476;2024-01-10T00:05:35;1.90;57.16
68867;SHT30;56451;44.804;20.476;2024-01-10T00:08:01;1.98;56.37
68867;SHT30;56451;44.804;20.476;2024-01-10T00:10:27;1.96;56.27
68867;SHT30;56451;44.804;20.476;2024-01-10T00:12:54;1.96;56.20
68867;SHT30;56451;44.804;20.476;2024-01-10T00:15:20;1.90;55.77
68867;SHT30;56451;44.804;20.476;2024-01-10T00:17:46;1.87;56.05
68867;SHT30;56451;44.804;20.476;2024-01-10T00:20:12;1.90;55.90
68867;SHT30;56451;44.804;20.476;2024-01-10T00:22:38;1.93;55.57
68867;SHT30;56451;44.804;20.476;2024-01-10T00:25:24;1.87;55.74
68867;SHT30;56451;44.804;20.476;2024-01-10T00:28:12;1.88;55.34
68867;SHT30;56451;44.804;20.476;2024-01-10T00:30:38;1.90;55.13
68867;SHT30;56451;44.804;20.476;2024-01-10T00:33:05;1.86;55.33
68867;SHT30;56451;44.804;20.476;2024-01-10T00:35:31;1.84;55.26
68867;SHT30;56451;44.804;20.476;2024-01-10T00:37:57;1.83;55.18
68867;SHT30;56451;44.804;20.476;2024-01-10T00:40:23;1.84;54.62
68867;SHT30;56451;44.804;20.476;2024-01-10T00:42:50;1.77;54.56
68867;SHT30;56451;44.804;20.476;2024-01-10T00:45:16;1.76;54.69
68867;SHT30;56451;44.804;20.476;2024-01-10T00:47:42;1.74;54.47
68867;SHT30;56451;44.804;20.476;2024-01-10T00:50:09;1.74;54.33
68867;SHT30;56451;44.804;20.476;2024-01-10T00:52:35;1.71;54.42
68867;SHT30;56451;44.804;20.476;2024-01-10T00:55:02;1.74;54.64
68867;SHT30;56451;44.804;20.476;2024-01-10T00:57:28;1.71;54.37
68867;SHT30;56451;44.804;20.476;2024-01-10T00:59:54;1.70;54.28
68867;SHT30;56451;44.804;20.476;2024-01-10T01:02:20;1.67;54.30
68867;SHT30;56451;44.804;20.476;2024-01-10T01:04:46;1.69;53.63
68867;SHT30;56451;44.804;20.476;2024-01-10T01:07:12;1.64;54.16
68867;SHT30;56451;44.804;20.476;2024-01-10T01:09:39;1.64;53.93
68867;SHT30;56451;44.804;20.476;2024-01-10T01:12:06;1.63;53.67
68867;SHT30;56451;44.804;20.476;2024-01-10T01:14:32;1.59;53.70
68867;SHT30;56451;44.804;20.476;2024-01-10T01:16:59;1.60;53.93
68867;SHT30;56451;44.804;20.476;2024-01-10T01:19:24;1.57;53.92
68867;SHT30;56451;44.804;20.476;2024-01-10T01:21:51;1.59;54.01
68867;SHT30;56451;44.804;20.476;2024-01-10T01:24:17;1.60;54.28
68867;SHT30;56451;44.804;20.476;2024-01-10T01:26:43;1.62;53.97
68867;SHT30;56451;44.804;20.476;2024-01-10T01:29:09;1.60;53.81
68867;SHT30;56451;44.804;20.476;2024-01-10T01:31:36;1.56;54.08
68867;SHT30;56451;44.804;20.476;2024-01-10T01:34:03;1.49;54.26
68867;SHT30;56451;44.804;20.476;2024-01-10T01:36:29;1.46;54.53
68867;SHT30;56451;44.804;20.476;2024-01-10T01:38:55;1.40;54.50
68867;SHT30;56451;44.804;20.476;2024-01-10T01:41:21;1.43;54.66
68867;SHT30;56451;44.804;20.476;2024-01-10T01:43:47;1.42;54.76
68867;SHT30;56451;44.804;20.476;2024-01-10T01:46:13;1.40;55.02
68867;SHT30;56451;44.804;20.476;2024-01-10T01:48:40;1.40;55.15
68867;SHT30;56451;44.804;20.476;2024-01-10T01:51:08;1.43;54.83
68867;SHT30;56451;44.804;20.476;2024-01-10T01:53:36;1.46;55.14
68867;SHT30;56451;44.804;20.476;2024-01-10T01:56:06;1.50;54.87
68867;SHT30;56451;44.804;20.476;2024-01-10T01:58:35;1.49;54.61
68867;SHT30;56451;44.804;20.476;2024-01-10T02:01:04;1.50;54.71
68867;SHT30;56451;44.804;20.476;2024-01-10T02:03:31;1.48;55.03
68867;SHT30;56451;44.804;20.476;2024-01-10T02:05:59;1.40;54.75
68867;SHT30;56451;44.804;20.476;2024-01-10T02:08:26;1.45;54.60
68867;SHT30;56451;44.804;20.476;2024-01-10T02:10:52;1.45;54.41
68867;SHT30;56451;44.804;20.476;2024-01-10T02:13:18;1.39;54.23
68867;SHT30;56451;44.804;20.476;2024-01-10T02:15:44;1.40;54.20
68867;SHT30;56451;44.804;20.476;2024-01-10T02:18:10;1.38;54.31
68867;SHT30;56451;44.804;20.476;2024-01-10T02:20:38;1.36;54.04
68867;SHT30;56451;44.804;20.476;2024-01-10T02:23:05;1.36;54.24
68867;SHT30;56451;44.804;20.476;2024-01-10T02:25:31;1.38;54.18
68867;SHT30;56451;44.804;20.476;2024-01-10T02:27:57;1.34;54.08
68867;SHT30;56451;44.804;20.476;2024-01-10T02:30:24;1.38;54.06
68867;SHT30;56451;44.804;20.476;2024-01-10T02:32:50;1.39;54.25
68867;SHT30;56451;44.804;20.476;2024-01-10T02:35:16;1.38;53.82
68867;SHT30;56451;44.804;20.476;2024-01-10T02:37:42;1.27;53.99
68867;SHT30;56451;44.804;20.476;2024-01-10T02:40:28;1.15;53.74
68867;SHT30;56451;44.804;20.476;2024-01-10T02:43:14;1.18;53.48
68867;SHT30;56451;44.804;20.476;2024-01-10T02:45:52;1.08;53.52
68867;SHT30;56451;44.804;20.476;2024-01-10T02:48:18;1.05;53.53
68867;SHT30;56451;44.804;20.476;2024-01-10T02:50:44;1.01;53.78
68867;SHT30;56451;44.804;20.476;2024-01-10T02:53:30;0.99;53.96
68867;SHT30;56451;44.804;20.476;2024-01-10T02:56:16;1.01;53.78
68867;SHT30;56451;44.804;20.476;2024-01-10T02:59:03;0.95;53.72
68867;SHT30;56451;44.804;20.476;2024-01-10T03:01:29;1.02;53.85
68867;SHT30;56451;44.804;20.476;2024-01-10T03:03:54;1.05;53.49
68867;SHT30;56451;44.804;20.476;2024-01-10T03:06:21;1.09;53.55
68867;SHT30;56451;44.804;20.476;2024-01-10T03:08:48;1.01;53.71
68867;SHT30;56451;44.804;20.476;2024-01-10T03:11:14;0.98;53.95
68867;SHT30;56451;44.804;20.476;2024-01-10T03:13:40;0.95;54.24
68867;SHT30;56451;44.804;20.476;2024-01-10T03:16:27;0.95;53.89
68867;SHT30;56451;44.804;20.476;2024-01-10T03:18:52;0.99;53.95
68867;SHT30;56451;44.804;20.476;2024-01-10T03:21:19;0.97;53.95
68867;SHT30;56451;44.804;20.476;2024-01-10T03:23:51;0.85;54.23
68867;SHT30;56451;44.804;20.476;2024-01-10T03:26:17;0.88;54.30
68867;SHT30;56451;44.804;20.476;2024-01-10T03:28:43;0.88;54.17
68867;SHT30;56451;44.804;20.476;2024-01-10T03:31:12;0.83;54.38
68867;SHT30;56451;44.804;20.476;2024-01-10T03:33:39;0.77;54.57
68867;SHT30;56451;44.804;20.476;2024-01-10T03:36:06;0.69;54.82
68867;SHT30;56451;44.804;20.476;2024-01-10T03:38:33;0.64;54.91
68867;SHT30;56451;44.804;20.476;2024-01-10T03:40:59;0.61;55.14
68867;SHT30;56451;44.804;20.476;2024-01-10T03:43:25;0.64;55.08
68867;SHT30;56451;44.804;20.476;2024-01-10T03:45:52;0.63;55.19
68867;SHT30;56451;44.804;20.476;2024-01-10T03:48:19;0.66;55.06
68867;SHT30;56451;44.804;20.476;2024-01-10T03:50:45;0.64;54.83
68867;SHT30;56451;44.804;20.476;2024-01-10T03:53:11;0.66;55.23
68867;SHT30;56451;44.804;20.476;2024-01-10T03:55:37;0.69;55.09
68867;SHT30;56451;44.804;20.476;2024-01-10T03:58:05;0.71;55.04
68867;SHT30;56451;44.804;20.476;2024-01-10T04:00:31;0.69;55.11
68867;SHT30;56451;44.804;20.476;2024-01-10T04:02:58;0.70;54.95
68867;SHT30;56451;44.804;20.476;2024-01-10T04:05:24;0.71;54.95
68867;SHT30;56451;44.804;20.476;2024-01-10T04:07:51;0.70;55.05
68867;SHT30;56451;44.804;20.476;2024-01-10T04:10:18;0.76;55.01
68867;SHT30;56451;44.804;20.476;2024-01-10T04:12:44;0.71;54.83
68867;SHT30;56451;44.804;20.476;2024-01-10T04:15:30;0.70;55.06
68867;SHT30;56451;44.804;20.476;2024-01-10T04:18:16;0.64;55.02
68867;SHT30;56451;44.804;20.476;2024-01-10T04:21:03;0.59;55.19
68867;SHT30;56451;44.804;20.476;2024-01-10T04:23:49;0.56;55.10
68867;SHT30;56451;44.804;20.476;2024-01-10T04:26:35;0.57;55.30
68867;SHT30;56451;44.804;20.476;2024-01-10T04:29:01;0.57;55.24
68867;SHT30;56451;44.804;20.476;2024-01-10T04:31:27;0.56;55.19
68867;SHT30;56451;44.804;20.476;2024-01-10T04:33:54;0.54;55.36
68867;SHT30;56451;44.804;20.476;2024-01-10T04:36:21;0.54;55.27
68867;SHT30;56451;44.804;20.476;2024-01-10T04:38:47;0.56;55.25
68867;SHT30;56451;44.804;20.476;2024-01-10T04:41:13;0.59;55.16
68867;SHT30;56451;44.804;20.476;2024-01-10T04:43:39;0.48;55.26
68867;SHT30;56451;44.804;20.476;2024-01-10T04:46:05;0.46;55.03
68867;SHT30;56451;44.804;20.476;2024-01-10T04:48:32;0.49;54.96
68867;SHT30;56451;44.804;20.476;2024-01-10T04:50:58;0.40;55.21
68867;SHT30;56451;44.804;20.476;2024-01-10T04:53:24;0.43;55.06
68867;SHT30;56451;44.804;20.476;2024-01-10T04:55:49;0.50;55.08
68867;SHT30;56451;44.804;20.476;2024-01-10T04:58:16;0.38;55.14
68867;SHT30;56451;44.804;20.476;2024-01-10T05:00:42;0.40;54.98
68867;SHT30;56451;44.804;20.476;2024-01-10T05:03:08;0.40;55.08
68867;SHT30;56451;44.804;20.476;2024-01-10T05:05:34;0.45;55.12
68867;SHT30;56451;44.804;20.476;2024-01-10T05:08:22;0.42;54.87
68867;SHT30;56451;44.804;20.476;2024-01-10T05:11:08;0.46;54.80
68867;SHT30;56451;44.804;20.476;2024-01-10T05:13:55;0.46;54.69
68867;SHT30;56451;44.804;20.476;2024-01-10T05:16:41;0.39;55.11
68867;SHT30;56451;44.804;20.476;2024-01-10T05:19:27;0.38;55.15
68867;SHT30;56451;44.804;20.476;2024-01-10T05:22:13;0.38;55.14
68867;SHT30;56451;44.804;20.476;2024-01-10T05:24:59;0.43;55.32
68867;SHT30;56451;44.804;20.476;2024-01-10T05:27:45;0.48;55.17
68867;SHT30;56451;44.804;20.476;2024-01-10T05:30:30;0.49;54.83
68867;SHT30;56451;44.804;20.476;2024-01-10T05:33:16;0.45;55.27
68867;SHT30;56451;44.804;20.476;2024-01-10T05:36:03;0.50;55.31
68867;SHT30;56451;44.804;20.476;2024-01-10T05:38:49;0.42;55.67
68867;SHT30;56451;44.804;20.476;2024-01-10T05:41:34;0.45;56.00
68867;SHT30;56451;44.804;20.476;2024-01-10T05:44:21;0.43;56.07
68867;SHT30;56451;44.804;20.476;2024-01-10T05:47:06;0.40;55.97
68867;SHT30;56451;44.804;20.476;2024-01-10T05:49:55;0.36;55.93
68867;SHT30;56451;44.804;20.476;2024-01-10T05:52:41;0.35;55.98
68867;SHT30;56451;44.804;20.476;2024-01-10T05:55:27;0.33;56.08
68867;SHT30;56451;44.804;20.476;2024-01-10T05:58:13;0.28;56.31
68867;SHT30;56451;44.804;20.476;2024-01-10T06:00:58;0.30;56.17
68867;SHT30;56451;44.804;20.476;2024-01-10T06:03:44;0.29;56.17
68867;SHT30;56451;44.804;20.476;2024-01-10T06:06:30;0.28;56.35
68867;SHT30;56451;44.804;20.476;2024-01-10T06:09:17;0.36;56.09
68867;SHT30;56451;44.804;20.476;2024-01-10T06:12:03;0.35;56.08
68867;SHT30;56451;44.804;20.476;2024-01-10T06:14:49;0.33;56.30
68867;SHT30;56451;44.804;20.476;2024-01-10T06:17:15;0.32;56.04
68867;SHT30;56451;44.804;20.476;2024-01-10T06:19:41;0.30;56.11
68867;SHT30;56451;44.804;20.476;2024-01-10T06:22:07;0.29;56.29
68867;SHT30;56451;44.804;20.476;2024-01-10T06:24:33;0.29;56.16
68867;SHT30;56451;44.804;20.476;2024-01-10T06:26:59;0.26;56.25
68867;SHT30;56451;44.804;20.476;2024-01-10T06:29:24;0.22;56.71
68867;SHT30;56451;44.804;20.476;2024-01-10T06:31:50;0.25;56.48
68867;SHT30;56451;44.804;20.476;2024-01-10T06:34:16;0.26;56.30
68867;SHT30;56451;44.804;20.476;2024-01-10T06:37:03;0.23;56.62
68867;SHT30;56451;44.804;20.476;2024-01-10T06:39:29;0.28;56.68
68867;SHT30;56451;44.804;20.476;2024-01-10T06:41:55;0.25;56.74
68867;SHT30;56451;44.804;20.476;2024-01-10T06:44:21;0.28;56.83
68867;SHT30;56451;44.804;20.476;2024-01-10T06:46:47;0.30;56.61
68867;SHT30;56451;44.804;20.476;2024-01-10T06:49:33;0.30;56.94
68867;SHT30;56451;44.804;20.476;2024-01-10T06:51:59;0.26;56.71
68867;SHT30;56451;44.804;20.476;2024-01-10T06:54:26;0.28;56.58
68867;SHT30;56451;44.804;20.476;2024-01-10T06:56:52;0.32;56.64
68867;SHT30;56451;44.804;20.476;2024-01-10T06:59:26;0.35;56.58
68867;SHT30;56451;44.804;20.476;2024-01-10T07:01:52;0.40;56.26
68867;SHT30;56451;44.804;20.476;2024-01-10T07:04:19;0.35;57.10
68867;SHT30;56451;44.804;20.476;2024-01-10T07:07:05;0.43;57.71
68867;SHT30;56451;44.804;20.476;2024-01-10T07:09:36;0.50;57.38
68867;SHT30;56451;44.804;20.476;2024-01-10T07:12:05;0.59;57.42
68867;SHT30;56451;44.804;20.476;2024-01-10T07:14:32;0.71;56.93
68867;SHT30;56451;44.804;20.476;2024-01-10T07:16:57;0.76;55.71
68867;SHT30;56451;44.804;20.476;2024-01-10T07:19:23;0.84;55.71
68867;SHT30;56451;44.804;20.476;2024-01-10T07:21:49;0.95;55.18
68867;SHT30;56451;44.804;20.476;2024-01-10T07:24:15;1.01;54.76
68867;SHT30;56451;44.804;20.476;2024-01-10T07:26:41;1.07;55.21
68867;SHT30;56451;44.804;20.476;2024-01-10T07:29:07;1.14;55.52
68867;SHT30;56451;44.804;20.476;2024-01-10T07:31:34;1.21;55.56
68867;SHT30;56451;44.804;20.476;2024-01-10T07:34:00;1.32;54.05
68867;SHT30;56451;44.804;20.476;2024-01-10T07:36:27;1.38;53.81
68867;SHT30;56451;44.804;20.476;2024-01-10T07:38:56;1.40;54.21
68867;SHT30;56451;44.804;20.476;2024-01-10T07:41:25;1.50;53.45
68867;SHT30;56451;44.804;20.476;2024-01-10T07:43:51;1.56;52.81
68867;SHT30;56451;44.804;20.476;2024-01-10T07:46:17;1.62;53.95
68867;SHT30;56451;44.804;20.476;2024-01-10T07:48:43;1.66;53.63
68867;SHT30;56451;44.804;20.476;2024-01-10T07:51:29;1.70;53.19
68867;SHT30;56451;44.804;20.476;2024-01-10T07:53:55;1.76;51.99
68867;SHT30;56451;44.804;20.476;2024-01-10T07:56:22;1.80;52.48
68867;SHT30;56451;44.804;20.476;2024-01-10T07:58:48;1.86;52.40
68867;SHT30;56451;44.804;20.476;2024-01-10T08:01:15;1.88;52.11
68867;SHT30;56451;44.804;20.476;2024-01-10T08:04:00;1.88;51.78
68867;SHT30;56451;44.804;20.476;2024-01-10T08:06:46;1.94;51.31
68867;SHT30;56451;44.804;20.476;2024-01-10T08:09:12;2.03;50.97
68867;SHT30;56451;44.804;20.476;2024-01-10T08:11:40;2.07;50.89
68867;SHT30;56451;44.804;20.476;2024-01-10T08:14:06;2.13;50.20
68867;SHT30;56451;44.804;20.476;2024-01-10T08:16:32;2.17;49.96
68867;SHT30;56451;44.804;20.476;2024-01-10T08:18:58;2.22;49.73
68867;SHT30;56451;44.804;20.476;2024-01-10T08:21:24;2.25;49.78
68867;SHT30;56451;44.804;20.476;2024-01-10T08:23:50;2.31;50.21
68867;SHT30;56451;44.804;20.476;2024-01-10T08:26:16;2.42;50.60
68867;SHT30;56451;44.804;20.476;2024-01-10T08:28:42;2.42;50.37
68867;SHT30;56451;44.804;20.476;2024-01-10T08:31:08;2.46;49.87
68867;SHT30;56451;44.804;20.476;2024-01-10T08:33:54;2.48;50.07
68867;SHT30;56451;44.804;20.476;2024-01-10T08:36:40;2.48;50.29
68867;SHT30;56451;44.804;20.476;2024-01-10T08:39:07;2.55;49.94
68867;SHT30;56451;44.804;20.476;2024-01-10T08:41:33;2.59;48.84
68867;SHT30;56451;44.804;20.476;2024-01-10T08:44:19;2.59;48.75
68867;SHT30;56451;44.804;20.476;2024-01-10T08:46:45;2.63;48.44
68867;SHT30;56451;44.804;20.476;2024-01-10T08:49:11;2.71;48.85
68867;SHT30;56451;44.804;20.476;2024-01-10T08:51:37;2.75;47.93
68867;SHT30;56451;44.804;20.476;2024-01-10T08:54:03;2.79;48.85
68867;SHT30;56451;44.804;20.476;2024-01-10T08:56:29;2.84;47.28
68867;SHT30;56451;44.804;20.476;2024-01-10T08:58:55;2.89;47.73
68867;SHT30;56451;44.804;20.476;2024-01-10T09:01:21;2.86;47.18
68867;SHT30;56451;44.804;20.476;2024-01-10T09:03:48;2.87;47.70
68867;SHT30;56451;44.804;20.476;2024-01-10T09:06:14;2.96;48.88
68867;SHT30;56451;44.804;20.476;2024-01-10T09:08:40;3.04;46.83
68867;SHT30;56451;44.804;20.476;2024-01-10T09:11:06;3.07;47.08
68867;SHT30;56451;44.804;20.476;2024-01-10T09:13:32;3.10;46.71
68867;SHT30;56451;44.804;20.476;2024-01-10T09:15:57;3.07;46.50
68867;SHT30;56451;44.804;20.476;2024-01-10T09:18:23;3.13;46.42
68867;SHT30;56451;44.804;20.476;2024-01-10T09:20:49;3.13;47.12
68867;SHT30;56451;44.804;20.476;2024-01-10T09:23:15;3.28;47.65
68867;SHT30;56451;44.804;20.476;2024-01-10T09:25:41;3.28;47.61
68867;SHT30;56451;44.804;20.476;2024-01-10T09:28:07;3.30;46.88
68867;SHT30;56451;44.804;20.476;2024-01-10T09:30:33;3.35;47.20
68867;SHT30;56451;44.804;20.476;2024-01-10T09:32:59;3.42;47.70
68867;SHT30;56451;44.804;20.476;2024-01-10T09:35:45;3.50;48.33
68867;SHT30;56451;44.804;20.476;2024-01-10T09:38:12;3.54;47.70
68867;SHT30;56451;44.804;20.476;2024-01-10T09:40:38;3.56;48.03
68867;SHT30;56451;44.804;20.476;2024-01-10T09:43:05;3.62;47.72
68867;SHT30;56451;44.804;20.476;2024-01-10T09:45:35;3.66;47.78
68867;SHT30;56451;44.804;20.476;2024-01-10T09:48:02;3.72;47.58
68867;SHT30;56451;44.804;20.476;2024-01-10T09:50:28;3.65;48.08
68867;SHT30;56451;44.804;20.476;2024-01-10T09:53:06;3.63;47.96
68867;SHT30;56451;44.804;20.476;2024-01-10T09:55:37;3.55;48.90
68867;SHT30;56451;44.804;20.476;2024-01-10T09:58:06;3.62;48.46
68867;SHT30;56451;44.804;20.476;2024-01-10T10:00:34;3.63;48.22
68867;SHT30;56451;44.804;20.476;2024-01-10T10:03:08;3.68;48.41
68867;SHT30;56451;44.804;20.476;2024-01-10T10:05:36;3.69;48.77
68867;SHT30;56451;44.804;20.476;2024-01-10T10:08:06;3.71;49.13
68867;SHT30;56451;44.804;20.476;2024-01-10T10:10:32;3.76;49.62
68867;SHT30;56451;44.804;20.476;2024-01-10T10:12:58;3.79;49.03
68867;SHT30;56451;44.804;20.476;2024-01-10T10:15:25;3.76;48.86
68867;SHT30;56451;44.804;20.476;2024-01-10T10:17:54;3.72;49.71
68867;SHT30;56451;44.804;20.476;2024-01-10T10:20:22;3.75;50.34
68867;SHT30;56451;44.804;20.476;2024-01-10T10:23:03;3.71;50.29
68867;SHT30;56451;44.804;20.476;2024-01-10T10:25:31;3.78;49.92
68867;SHT30;56451;44.804;20.476;2024-01-10T10:28:17;3.75;49.58
68867;SHT30;56451;44.804;20.476;2024-01-10T10:31:03;3.65;49.97
68867;SHT30;56451;44.804;20.476;2024-01-10T10:33:50;3.68;50.23
68867;SHT30;56451;44.804;20.476;2024-01-10T10:36:36;3.62;49.69
68867;SHT30;56451;44.804;20.476;2024-01-10T10:39:22;3.65;49.40
68867;SHT30;56451;44.804;20.476;2024-01-10T10:42:07;3.69;49.24
68867;SHT30;56451;44.804;20.476;2024-01-10T10:44:57;3.72;49.89
68867;SHT30;56451;44.804;20.476;2024-01-10T10:47:37;3.78;49.89
68867;SHT30;56451;44.804;20.476;2024-01-10T10:50:22;3.83;50.60
68867;SHT30;56451;44.804;20.476;2024-01-10T10:53:08;3.82;49.82
68867;SHT30;56451;44.804;20.476;2024-01-10T10:55:56;3.89;49.53
68867;SHT30;56451;44.804;20.476;2024-01-10T10:58:43;3.89;49.30
68867;SHT30;56451;44.804;20.476;2024-01-10T11:01:31;3.96;49.05
68867;SHT30;56451;44.804;20.476;2024-01-10T11:04:19;3.86;48.29
68867;SHT30;56451;44.804;20.476;2024-01-10T11:06:45;3.79;49.21
68867;SHT30;56451;44.804;20.476;2024-01-10T11:09:31;3.76;50.09
68867;SHT30;56451;44.804;20.476;2024-01-10T11:12:11;3.75;49.50
68867;SHT30;56451;44.804;20.476;2024-01-10T11:17:50;3.79;49.04
68867;SHT30;56451;44.804;20.476;2024-01-10T11:20:52;3.82;49.56
68867;SHT30;56451;44.804;20.476;2024-01-10T11:23:48;3.81;50.09
68867;SHT30;56451;44.804;20.476;2024-01-10T11:26:15;3.89;49.13
68867;SHT30;56451;44.804;20.476;2024-01-10T11:28:42;3.93;49.49
68867;SHT30;56451;44.804;20.476;2024-01-10T11:31:08;4.00;49.60
68867;SHT30;56451;44.804;20.476;2024-01-10T11:33:58;4.03;49.17
68867;SHT30;56451;44.804;20.476;2024-01-10T11:36:26;4.09;49.16
68867;SHT30;56451;44.804;20.476;2024-01-10T11:39:12;4.10;49.29
68867;SHT30;56451;44.804;20.476;2024-01-10T11:41:58;4.21;49.35
68867;SHT30;56451;44.804;20.476;2024-01-10T11:44:25;4.09;48.82
68867;SHT30;56451;44.804;20.476;2024-01-10T11:47:13;4.10;49.37
68867;SHT30;56451;44.804;20.476;2024-01-10T11:50:02;4.10;49.47
68867;SHT30;56451;44.804;20.476;2024-01-10T11:52:53;4.11;49.36
68867;SHT30;56451;44.804;20.476;2024-01-10T11:55:50;4.10;49.61
68867;SHT30;56451;44.804;20.476;2024-01-10T11:58:19;4.00;49.50
68867;SHT30;56451;44.804;20.476;2024-01-10T12:00:53;3.82;50.48
68867;SHT30;56451;44.804;20.476;2024-01-10T12:03:40;3.69;51.49
68867;SHT30;56451;44.804;20.476;2024-01-10T12:06:26;3.58;52.72
68867;SHT30;56451;44.804;20.476;2024-01-10T12:08:52;3.48;52.87
68867;SHT30;56451;44.804;20.476;2024-01-10T12:11:41;3.28;53.22
68867;SHT30;56451;44.804;20.476;2024-01-10T12:14:10;3.10;54.25
68867;SHT30;56451;44.804;20.476;2024-01-10T12:16:56;2.96;55.58
68867;SHT30;56451;44.804;20.476;2024-01-10T12:19:42;2.92;56.42
68867;SHT30;56451;44.804;20.476;2024-01-10T12:22:28;2.92;56.57
68867;SHT30;56451;44.804;20.476;2024-01-10T12:25:17;2.92;57.36
68867;SHT30;56451;44.804;20.476;2024-01-10T12:28:03;2.99;57.10
68867;SHT30;56451;44.804;20.476;2024-01-10T12:30:48;2.99;56.66
68867;SHT30;56451;44.804;20.476;2024-01-10T12:33:38;2.93;56.89
68867;SHT30;56451;44.804;20.476;2024-01-10T12:36:23;2.86;57.02
68867;SHT30;56451;44.804;20.476;2024-01-10T12:39:10;2.72;57.20
68867;SHT30;56451;44.804;20.476;2024-01-10T12:41:57;2.59;58.22
68867;SHT30;56451;44.804;20.476;2024-01-10T12:44:27;2.57;57.83
68867;SHT30;56451;44.804;20.476;2024-01-10T12:47:20;2.60;58.23
68867;SHT30;56451;44.804;20.476;2024-01-10T12:49:47;2.71;57.94
68867;SHT30;56451;44.804;20.476;2024-01-10T12:52:33;2.84;57.55
68867;SHT30;56451;44.804;20.476;2024-01-10T12:55:19;2.94;57.54
68867;SHT30;56451;44.804;20.476;2024-01-10T12:58:04;3.04;57.96
68867;SHT30;56451;44.804;20.476;2024-01-10T13:00:50;3.10;56.58
68867;SHT30;56451;44.804;20.476;2024-01-10T13:03:25;3.05;57.38
68867;SHT30;56451;44.804;20.476;2024-01-10T13:06:11;3.08;57.15
68867;SHT30;56451;44.804;20.476;2024-01-10T13:08:56;3.13;57.10
68867;SHT30;56451;44.804;20.476;2024-01-10T13:11:22;3.20;57.22
68867;SHT30;56451;44.804;20.476;2024-01-10T13:13:48;3.24;56.97
68867;SHT30;56451;44.804;20.476;2024-01-10T13:16:34;3.28;56.88
68867;SHT30;56451;44.804;20.476;2024-01-10T13:19:20;3.32;57.00
68867;SHT30;56451;44.804;20.476;2024-01-10T13:21:46;3.30;56.14
68867;SHT30;56451;44.804;20.476;2024-01-10T13:24:12;3.30;56.82
68867;SHT30;56451;44.804;20.476;2024-01-10T13:26:55;3.38;56.21
68867;SHT30;56451;44.804;20.476;2024-01-10T13:29:22;3.45;55.92
68867;SHT30;56451;44.804;20.476;2024-01-10T13:31:48;3.54;56.19
68867;SHT30;56451;44.804;20.476;2024-01-10T13:34:34;3.63;55.96
68867;SHT30;56451;44.804;20.476;2024-01-10T13:36:59;3.69;55.20
68867;SHT30;56451;44.804;20.476;2024-01-10T13:39:45;3.81;55.34
68867;SHT30;56451;44.804;20.476;2024-01-10T13:42:12;3.79;53.93
68867;SHT30;56451;44.804;20.476;2024-01-10T13:44:58;3.63;54.48
68867;SHT30;56451;44.804;20.476;2024-01-10T13:47:44;3.66;55.27
68867;SHT30;56451;44.804;20.476;2024-01-10T13:50:29;3.73;55.09
68867;SHT30;56451;44.804;20.476;2024-01-10T13:52:55;3.55;54.84
68867;SHT30;56451;44.804;20.476;2024-01-10T13:55:41;3.34;55.19
68867;SHT30;56451;44.804;20.476;2024-01-10T13:58:27;3.28;56.09
68867;SHT30;56451;44.804;20.476;2024-01-10T14:00:54;3.31;56.28
68867;SHT30;56451;44.804;20.476;2024-01-10T14:03:20;3.41;56.54
68867;SHT30;56451;44.804;20.476;2024-01-10T14:05:47;3.42;56.03
68867;SHT30;56451;44.804;20.476;2024-01-10T14:08:12;3.32;55.62
68867;SHT30;56451;44.804;20.476;2024-01-10T14:10:38;3.30;56.25
68867;SHT30;56451;44.804;20.476;2024-01-10T14:13:05;3.38;56.38
68867;SHT30;56451;44.804;20.476;2024-01-10T14:15:32;3.50;56.06
68867;SHT30;56451;44.804;20.476;2024-01-10T14:17:58;3.35;55.94
68867;SHT30;56451;44.804;20.476;2024-01-10T14:20:24;3.17;56.37
68867;SHT30;56451;44.804;20.476;2024-01-10T14:22:50;3.00;57.29
68867;SHT30;56451;44.804;20.476;2024-01-10T14:25:36;2.77;58.39
68867;SHT30;56451;44.804;20.476;2024-01-10T14:28:01;2.67;59.03
68867;SHT30;56451;44.804;20.476;2024-01-10T14:30:28;2.65;59.31
68867;SHT30;56451;44.804;20.476;2024-01-10T14:32:55;2.55;59.56
68867;SHT30;56451;44.804;20.476;2024-01-10T14:35:21;2.49;59.92
68867;SHT30;56451;44.804;20.476;2024-01-10T14:37:47;2.45;59.02
68867;SHT30;56451;44.804;20.476;2024-01-10T14:40:33;2.29;59.84
68867;SHT30;56451;44.804;20.476;2024-01-10T14:43:19;2.20;59.86
68867;SHT30;56451;44.804;20.476;2024-01-10T14:45:44;2.11;60.65
68867;SHT30;56451;44.804;20.476;2024-01-10T14:48:10;2.03;61.28
68867;SHT30;56451;44.804;20.476;2024-01-10T14:50:36;1.96;61.50
68867;SHT30;56451;44.804;20.476;2024-01-10T14:53:02;1.87;61.63
68867;SHT30;56451;44.804;20.476;2024-01-10T14:55:28;1.84;62.13
68867;SHT30;56451;44.804;20.476;2024-01-10T14:57:54;1.86;62.84
68867;SHT30;56451;44.804;20.476;2024-01-10T15:00:40;1.84;62.41
68867;SHT30;56451;44.804;20.476;2024-01-10T15:03:26;1.86;63.00
68867;SHT30;56451;44.804;20.476;2024-01-10T15:05:52;1.77;62.75
68867;SHT30;56451;44.804;20.476;2024-01-10T15:08:42;1.80;63.23
68867;SHT30;56451;44.804;20.476;2024-01-10T15:11:08;1.74;63.28
68867;SHT30;56451;44.804;20.476;2024-01-10T15:13:39;1.66;63.75
68867;SHT30;56451;44.804;20.476;2024-01-10T15:16:11;1.57;64.08
68867;SHT30;56451;44.804;20.476;2024-01-10T15:18:37;1.50;64.24
68867;SHT30;56451;44.804;20.476;2024-01-10T15:21:04;1.43;64.62
68867;SHT30;56451;44.804;20.476;2024-01-10T15:23:31;1.31;64.88
68867;SHT30;56451;44.804;20.476;2024-01-10T15:25:58;1.25;65.73
68867;SHT30;56451;44.804;20.476;2024-01-10T15:28:23;1.31;66.23
68867;SHT30;56451;44.804;20.476;2024-01-10T15:30:49;1.29;65.58
68867;SHT30;56451;44.804;20.476;2024-01-10T15:33:35;1.21;65.40
68867;SHT30;56451;44.804;20.476;2024-01-10T15:36:01;1.17;65.51
68867;SHT30;56451;44.804;20.476;2024-01-10T15:38:27;1.11;66.03
68867;SHT30;56451;44.804;20.476;2024-01-10T15:40:53;1.12;66.24
68867;SHT30;56451;44.804;20.476;2024-01-10T15:43:19;1.07;65.78
68867;SHT30;56451;44.804;20.476;2024-01-10T15:45:45;1.04;65.83
68867;SHT30;56451;44.804;20.476;2024-01-10T15:48:11;0.97;65.86
68867;SHT30;56451;44.804;20.476;2024-01-10T15:50:37;0.95;65.99
68867;SHT30;56451;44.804;20.476;2024-01-10T15:53:03;0.92;66.13
68867;SHT30;56451;44.804;20.476;2024-01-10T15:55:29;0.83;66.51
68867;SHT30;56451;44.804;20.476;2024-01-10T15:57:54;0.84;66.42
68867;SHT30;56451;44.804;20.476;2024-01-10T16:00:21;0.83;66.89
68867;SHT30;56451;44.804;20.476;2024-01-10T16:02:47;0.87;66.40
68867;SHT30;56451;44.804;20.476;2024-01-10T16:05:33;0.85;65.95